createdAt,value
2023-04-26T00:01:08.244Z,100.00
2023-04-26T00:03:34.877Z,100.00
2023-04-26T00:06:08.803Z,100.00
2023-04-26T00:08:35.928Z,100.00
2023-04-26T00:11:02.363Z,100.00
2023-04-26T00:13:28.909Z,100.00
2023-04-26T00:15:55.376Z,100.00
2023-04-26T00:18:22.079Z,100.00
2023-04-26T00:20:48.506Z,100.00
2023-04-26T00:23:14.978Z,100.00
2023-04-26T00:25:41.750Z,100.00
2023-04-26T00:28:08.171Z,100.00
2023-04-26T00:30:37.559Z,100.00
2023-04-26T00:33:04.034Z,100.00
2023-04-26T00:35:31.041Z,100.00
2023-04-26T00:37:57.447Z,100.00
2023-04-26T00:40:23.892Z,100.00
2023-04-26T00:42:57.709Z,100.00
2023-04-26T00:45:24.142Z,100.00
2023-04-26T00:47:51.298Z,100.00
2023-04-26T00:50:18.154Z,100.00
2023-04-26T00:52:47.063Z,100.00
2023-04-26T00:55:14.772Z,100.00
2023-04-26T00:57:41.279Z,100.00
2023-04-26T01:00:08.587Z,100.00
2023-04-26T01:02:35.194Z,100.00
2023-04-26T01:05:01.726Z,100.00
2023-04-26T01:07:28.193Z,100.00
2023-04-26T01:09:55.413Z,100.00
2023-04-26T01:12:23.626Z,100.00
2023-04-26T01:14:50.189Z,100.00
2023-04-26T01:17:16.708Z,100.00
2023-04-26T01:19:50.066Z,100.00
2023-04-26T01:22:16.616Z,100.00
2023-04-26T01:24:44.630Z,100.00
2023-04-26T01:27:11.033Z,100.00
2023-04-26T01:29:37.496Z,100.00
2023-04-26T01:32:04.201Z,100.00
2023-04-26T01:34:30.680Z,100.00
2023-04-26T01:36:57.112Z,100.00
2023-04-26T01:39:23.575Z,100.00
2023-04-26T01:41:49.969Z,100.00
2023-04-26T01:44:16.609Z,100.00
2023-04-26T01:46:43.086Z,100.00
2023-04-26T01:49:09.507Z,100.00
2023-04-26T01:51:36.249Z,100.00
2023-04-26T01:54:03.108Z,100.00
2023-04-26T01:56:29.524Z,100.00
2023-04-26T01:58:56.446Z,100.00
2023-04-26T02:01:23.006Z,100.00
2023-04-26T02:03:49.647Z,100.00
2023-04-26T02:06:16.191Z,100.00
2023-04-26T02:08:42.601Z,100.00
2023-04-26T02:11:09.226Z,100.00
2023-04-26T02:13:35.636Z,100.00
2023-04-26T02:16:02.108Z,100.00
2023-04-26T02:18:29.794Z,100.00
2023-04-26T02:20:56.614Z,100.00
2023-04-26T02:23:24.287Z,100.00
2023-04-26T02:25:50.844Z,100.00
2023-04-26T02:28:17.642Z,100.00
2023-04-26T02:30:44.715Z,100.00
2023-04-26T02:33:11.223Z,100.00
2023-04-26T02:35:37.644Z,100.00
2023-04-26T02:38:04.395Z,100.00
2023-04-26T02:40:30.953Z,100.00
2023-04-26T02:42:57.614Z,100.00
2023-04-26T02:45:24.118Z,100.00
2023-04-26T02:47:50.669Z,100.00
2023-04-26T02:50:17.088Z,100.00
2023-04-26T02:52:43.511Z,100.00
2023-04-26T02:55:10.162Z,100.00
2023-04-26T02:57:36.714Z,100.00
2023-04-26T03:00:05.488Z,100.00
2023-04-26T03:02:32.402Z,100.00
2023-04-26T03:04:59.201Z,100.00
2023-04-26T03:07:25.856Z,100.00
2023-04-26T03:09:52.336Z,100.00
2023-04-26T03:12:18.754Z,100.00
2023-04-26T03:14:45.114Z,100.00
2023-04-26T03:17:11.988Z,100.00
2023-04-26T03:19:38.443Z,100.00
2023-04-26T03:22:04.912Z,100.00
2023-04-26T03:24:31.785Z,100.00
2023-04-26T03:26:58.213Z,100.00
2023-04-26T03:29:24.612Z,100.00
2023-04-26T03:31:51.225Z,100.00
2023-04-26T03:34:17.717Z,100.00
2023-04-26T03:36:44.149Z,100.00
2023-04-26T03:39:11.462Z,100.00
2023-04-26T03:41:39.557Z,100.00
2023-04-26T03:44:06.249Z,100.00
2023-04-26T03:46:32.752Z,100.00
2023-04-26T03:48:59.272Z,100.00
2023-04-26T03:51:27.490Z,100.00
2023-04-26T03:53:54.706Z,100.00
2023-04-26T03:56:21.242Z,100.00
2023-04-26T03:58:47.679Z,100.00
2023-04-26T04:01:14.537Z,100.00
2023-04-26T04:03:41.706Z,100.00
2023-04-26T04:06:08.538Z,100.00
2023-04-26T04:08:35.046Z,100.00
2023-04-26T04:11:01.666Z,100.00
2023-04-26T04:13:28.231Z,100.00
2023-04-26T04:15:54.847Z,100.00
2023-04-26T04:18:21.629Z,100.00
2023-04-26T04:20:48.058Z,100.00
2023-04-26T04:23:14.571Z,100.00
2023-04-26T04:25:41.153Z,100.00
2023-04-26T04:28:08.564Z,100.00
2023-04-26T04:30:35.621Z,100.00
2023-04-26T04:33:02.771Z,100.00
2023-04-26T04:35:33.724Z,100.00
2023-04-26T04:38:01.619Z,100.00
2023-04-26T04:40:28.123Z,100.00
2023-04-26T04:42:55.513Z,100.00
2023-04-26T04:45:22.139Z,100.00
2023-04-26T04:47:48.710Z,100.00
2023-04-26T04:50:15.180Z,100.00
2023-04-26T04:52:42.511Z,100.00
2023-04-26T04:55:09.104Z,100.00
2023-04-26T04:57:35.993Z,100.00
2023-04-26T05:00:09.881Z,100.00
2023-04-26T05:02:37.400Z,100.00
2023-04-26T05:05:05.489Z,100.00
2023-04-26T05:07:32.499Z,100.00
2023-04-26T05:09:59.883Z,100.00
2023-04-26T05:12:26.582Z,100.00
2023-04-26T05:14:53.118Z,100.00
2023-04-26T05:17:19.919Z,100.00
2023-04-26T05:19:46.448Z,100.00
2023-04-26T05:22:21.151Z,100.00
2023-04-26T05:24:48.200Z,100.00
2023-04-26T05:27:14.799Z,100.00
2023-04-26T05:29:41.744Z,100.00
2023-04-26T05:32:08.486Z,100.00
2023-04-26T05:34:35.284Z,100.00
2023-04-26T05:37:04.428Z,100.00
2023-04-26T05:39:31.873Z,100.00
2023-04-26T05:41:58.364Z,100.00
2023-04-26T05:44:24.822Z,100.00
2023-04-26T05:46:51.436Z,100.00
2023-04-26T05:49:17.954Z,100.00
2023-04-26T05:51:44.426Z,100.00
2023-04-26T05:54:10.869Z,100.00
2023-04-26T05:56:37.287Z,100.00
2023-04-26T05:59:03.807Z,100.00
2023-04-26T06:01:30.869Z,100.00
2023-04-26T06:04:00.307Z,100.00
2023-04-26T06:06:28.239Z,100.00
2023-04-26T06:08:54.956Z,100.00
2023-04-26T06:11:21.615Z,100.00
2023-04-26T06:13:48.285Z,100.00
2023-04-26T06:16:14.804Z,100.00
2023-04-26T06:18:41.529Z,100.00
2023-04-26T06:21:08.136Z,100.00
2023-04-26T06:23:34.580Z,100.00
2023-04-26T06:26:01.123Z,100.00
2023-04-26T06:28:27.728Z,100.00
2023-04-26T06:30:54.188Z,100.00
2023-04-26T06:33:20.583Z,100.00
2023-04-26T06:35:47.057Z,100.00
2023-04-26T06:38:13.477Z,100.00
2023-04-26T06:40:40.098Z,100.00
2023-04-26T06:43:06.529Z,100.00
2023-04-26T06:45:32.931Z,100.00
2023-04-26T06:48:00.866Z,100.00
2023-04-26T06:50:27.624Z,100.00
2023-04-26T06:52:54.289Z,100.00
2023-04-26T06:55:21.159Z,100.00
2023-04-26T06:57:47.606Z,100.00
2023-04-26T07:00:14.678Z,100.00
2023-04-26T07:02:41.393Z,100.00
2023-04-26T07:05:08.845Z,100.00
2023-04-26T07:07:35.727Z,100.00
2023-04-26T07:10:03.018Z,100.00
2023-04-26T07:12:29.414Z,100.00
2023-04-26T07:14:55.823Z,100.00
2023-04-26T07:17:22.267Z,100.00
2023-04-26T07:19:48.750Z,100.00
2023-04-26T07:22:15.328Z,100.00
2023-04-26T07:24:41.724Z,100.00
2023-04-26T07:27:08.297Z,100.00
2023-04-26T07:29:34.809Z,100.00
2023-04-26T07:32:01.239Z,100.00
2023-04-26T07:34:27.709Z,100.00
2023-04-26T07:36:54.209Z,100.00
2023-04-26T07:39:20.674Z,100.00
2023-04-26T07:41:47.219Z,100.00
2023-04-26T07:44:13.635Z,100.00
2023-04-26T07:46:40.090Z,100.00
2023-04-26T07:49:06.526Z,100.00
2023-04-26T07:51:33.354Z,100.00
2023-04-26T07:53:59.812Z,100.00
2023-04-26T07:56:26.202Z,100.00
2023-04-26T07:58:52.942Z,100.00
2023-04-26T08:01:19.425Z,100.00
2023-04-26T08:03:46.044Z,100.00
2023-04-26T08:06:12.864Z,100.00
2023-04-26T08:08:44.734Z,100.00
2023-04-26T08:11:11.739Z,100.00
2023-04-26T08:13:38.248Z,100.00
2023-04-26T08:16:05.255Z,100.00
2023-04-26T08:18:31.775Z,100.00
2023-04-26T08:20:58.482Z,100.00
2023-04-26T08:23:24.953Z,100.00
2023-04-26T08:25:51.494Z,100.00
2023-04-26T08:28:18.007Z,100.00
2023-04-26T08:30:44.516Z,100.00
2023-04-26T08:33:11.088Z,100.00
2023-04-26T08:35:37.538Z,100.00
2023-04-26T08:38:04.065Z,99.23
2023-04-26T08:40:30.762Z,95.31
2023-04-26T08:42:57.186Z,92.14
2023-04-26T08:45:24.776Z,89.96
2023-04-26T08:47:53.583Z,85.54
2023-04-26T08:50:23.195Z,86.35
2023-04-26T08:52:52.357Z,82.62
2023-04-26T08:55:20.214Z,82.31
2023-04-26T08:57:48.572Z,81.19
2023-04-26T09:00:16.467Z,80.79
2023-04-26T09:02:47.941Z,78.46
2023-04-26T09:05:14.867Z,76.09
2023-04-26T09:07:44.954Z,75.69
2023-04-26T09:10:13.707Z,73.83
2023-04-26T09:12:40.670Z,73.42
2023-04-26T09:15:08.446Z,69.67
2023-04-26T09:17:37.803Z,66.70
2023-04-26T09:20:24.404Z,60.54
2023-04-26T09:22:52.703Z,70.53
2023-04-26T09:25:27.926Z,64.26
2023-04-26T09:27:54.456Z,66.54
2023-04-26T09:30:22.123Z,66.75
2023-04-26T09:33:00.474Z,62.16
2023-04-26T09:35:38.108Z,60.29
2023-04-26T09:38:15.150Z,62.19
2023-04-26T09:40:49.766Z,56.40
2023-04-26T09:43:21.077Z,61.12
2023-04-26T09:45:56.229Z,55.41
2023-04-26T09:48:23.824Z,59.16
2023-04-26T09:50:55.534Z,58.03
2023-04-26T09:53:39.774Z,51.96
2023-04-26T09:56:08.608Z,55.82
2023-04-26T09:58:58.254Z,53.56
2023-04-26T10:01:26.702Z,54.28
2023-04-26T10:03:53.844Z,55.32
2023-04-26T10:06:20.471Z,54.71
2023-04-26T10:08:46.975Z,54.45
2023-04-26T10:11:13.936Z,55.07
2023-04-26T10:13:41.789Z,55.79
2023-04-26T10:16:09.971Z,55.40
2023-04-26T10:18:36.701Z,53.35
2023-04-26T10:21:29.387Z,50.23
2023-04-26T10:23:56.599Z,50.76
2023-04-26T10:26:56.692Z,46.63
2023-04-26T10:29:25.720Z,50.42
2023-04-26T10:32:08.637Z,45.49
2023-04-26T10:34:37.215Z,49.92
2023-04-26T10:37:08.994Z,46.52
2023-04-26T10:39:36.828Z,48.56
2023-04-26T10:42:25.467Z,48.79
2023-04-26T10:44:59.932Z,45.80
2023-04-26T10:47:37.281Z,43.82
2023-04-26T10:50:08.882Z,46.59
2023-04-26T10:53:00.899Z,45.70
2023-04-26T10:55:43.334Z,41.79
2023-04-26T10:58:32.846Z,41.53
2023-04-26T11:01:18.149Z,42.69
2023-04-26T11:04:04.978Z,42.19
2023-04-26T11:06:57.916Z,40.48
2023-04-26T11:09:38.052Z,41.90
2023-04-26T11:12:05.855Z,43.90
2023-04-26T11:14:34.995Z,43.60
2023-04-26T11:17:06.329Z,41.93
2023-04-26T11:19:33.243Z,42.40
2023-04-26T11:22:03.258Z,41.77
2023-04-26T11:24:31.558Z,41.43
2023-04-26T11:26:58.447Z,41.14
2023-04-26T11:29:25.872Z,41.08
2023-04-26T11:31:53.977Z,41.06
2023-04-26T11:34:34.334Z,38.35
2023-04-26T11:37:05.715Z,40.02
2023-04-26T11:39:36.114Z,41.39
2023-04-26T11:42:10.412Z,39.89
2023-04-26T11:44:37.906Z,40.12
2023-04-26T11:47:06.642Z,39.73
2023-04-26T11:49:37.569Z,40.06
2023-04-26T11:52:05.019Z,39.96
2023-04-26T11:54:37.463Z,39.41
2023-04-26T11:57:16.170Z,37.96
2023-04-26T11:59:44.087Z,39.28
2023-04-26T12:02:10.747Z,39.32
2023-04-26T12:04:38.845Z,39.60
2023-04-26T12:07:07.100Z,39.21
2023-04-26T12:09:33.637Z,39.29
2023-04-26T12:12:02.058Z,39.09
2023-04-26T12:14:36.752Z,37.56
2023-04-26T12:17:06.034Z,39.18
2023-04-26T12:19:40.142Z,39.74
2023-04-26T12:22:08.444Z,39.76
2023-04-26T12:24:38.695Z,39.19
2023-04-26T12:27:06.951Z,39.09
2023-04-26T12:29:34.386Z,39.80
2023-04-26T12:32:01.594Z,40.02
2023-04-26T12:34:28.386Z,39.26
2023-04-26T12:36:55.010Z,39.46
2023-04-26T12:39:21.486Z,38.97
2023-04-26T12:41:47.992Z,38.71
2023-04-26T12:44:14.817Z,38.86
2023-04-26T12:46:41.513Z,38.57
2023-04-26T12:49:08.223Z,39.37
2023-04-26T12:51:34.737Z,38.14
2023-04-26T12:54:01.206Z,38.17
2023-04-26T12:56:29.486Z,38.07
2023-04-26T12:58:56.231Z,38.45
2023-04-26T13:01:22.949Z,38.68
2023-04-26T13:03:49.829Z,38.74
2023-04-26T13:06:16.644Z,38.96
2023-04-26T13:08:43.205Z,38.06
2023-04-26T13:11:09.595Z,38.19
2023-04-26T13:13:43.804Z,38.00
2023-04-26T13:16:11.746Z,38.10
2023-04-26T13:18:38.632Z,37.97
2023-04-26T13:21:05.215Z,38.24
2023-04-26T13:23:31.918Z,38.60
2023-04-26T13:25:58.343Z,38.18
2023-04-26T13:28:24.810Z,38.40
2023-04-26T13:30:52.377Z,38.54
2023-04-26T13:33:20.175Z,38.58
2023-04-26T13:35:46.643Z,38.67
2023-04-26T13:38:13.457Z,38.61
2023-04-26T13:40:40.014Z,39.58
2023-04-26T13:43:06.446Z,39.93
2023-04-26T13:45:36.707Z,40.38
2023-04-26T13:48:03.541Z,39.98
2023-04-26T13:50:30.084Z,39.73
2023-04-26T13:52:56.741Z,39.21
2023-04-26T13:55:23.378Z,39.84
2023-04-26T13:57:49.856Z,39.21
2023-04-26T14:00:16.801Z,38.59
2023-04-26T14:02:43.488Z,38.29
2023-04-26T14:05:10.350Z,38.28
2023-04-26T14:07:36.920Z,37.71
2023-04-26T14:10:03.632Z,37.23
2023-04-26T14:12:30.121Z,37.31
2023-04-26T14:14:56.608Z,37.35
2023-04-26T14:17:23.032Z,37.21
2023-04-26T14:19:49.509Z,36.67
2023-04-26T14:22:17.577Z,36.19
2023-04-26T14:24:44.244Z,36.69
2023-04-26T14:27:10.670Z,36.75
2023-04-26T14:29:37.098Z,35.71
2023-04-26T14:32:03.634Z,35.72
2023-04-26T14:34:30.081Z,35.25
2023-04-26T14:37:01.347Z,35.03
2023-04-26T14:39:28.008Z,34.25
2023-04-26T14:41:56.218Z,33.84
2023-04-26T14:44:26.262Z,33.94
2023-04-26T14:46:53.194Z,33.35
2023-04-26T14:49:19.889Z,33.41
2023-04-26T14:51:46.632Z,33.16
2023-04-26T14:54:13.106Z,33.14
2023-04-26T14:56:39.491Z,33.59
2023-04-26T14:59:05.933Z,32.88
2023-04-26T15:01:32.401Z,33.34
2023-04-26T15:04:00.860Z,33.26
2023-04-26T15:06:28.679Z,33.08
2023-04-26T15:08:55.173Z,32.97
2023-04-26T15:11:21.593Z,33.00
2023-04-26T15:13:48.097Z,32.95
2023-04-26T15:16:14.594Z,33.10
2023-04-26T15:18:41.037Z,33.31
2023-04-26T15:21:07.472Z,33.50
2023-04-26T15:23:33.918Z,34.01
2023-04-26T15:26:03.951Z,33.66
2023-04-26T15:28:30.426Z,33.83
2023-04-26T15:31:09.753Z,33.02
2023-04-26T15:33:36.502Z,34.10
2023-04-26T15:36:03.204Z,34.20
2023-04-26T15:38:29.632Z,34.62
2023-04-26T15:40:56.141Z,34.07
2023-04-26T15:43:22.555Z,34.18
2023-04-26T15:45:49.655Z,34.16
2023-04-26T15:48:16.520Z,34.09
2023-04-26T15:50:42.971Z,34.12
2023-04-26T15:53:09.483Z,33.65
2023-04-26T15:55:35.948Z,33.92
2023-04-26T15:58:02.511Z,33.60
2023-04-26T16:00:29.089Z,33.05
2023-04-26T16:02:55.851Z,32.87
2023-04-26T16:05:22.402Z,32.79
2023-04-26T16:07:48.794Z,32.74
2023-04-26T16:10:15.208Z,33.02
2023-04-26T16:12:42.818Z,32.96
2023-04-26T16:15:09.827Z,32.95
2023-04-26T16:17:37.660Z,33.00
2023-04-26T16:20:06.804Z,33.21
2023-04-26T16:22:34.378Z,33.44
2023-04-26T16:25:01.563Z,33.69
2023-04-26T16:27:27.994Z,34.12
2023-04-26T16:29:54.605Z,34.74
2023-04-26T16:32:21.735Z,34.55
2023-04-26T16:34:48.318Z,34.62
2023-04-26T16:37:14.749Z,34.99
2023-04-26T16:39:41.249Z,35.08
2023-04-26T16:42:07.739Z,35.10
2023-04-26T16:44:34.157Z,35.68
2023-04-26T16:47:01.653Z,35.95
2023-04-26T16:49:28.299Z,36.15
2023-04-26T16:51:58.690Z,36.20
2023-04-26T16:54:28.424Z,36.47
2023-04-26T16:56:54.948Z,36.43
2023-04-26T16:59:21.410Z,36.54
2023-04-26T17:01:47.940Z,36.32
2023-04-26T17:04:14.772Z,36.83
2023-04-26T17:06:41.511Z,36.80
2023-04-26T17:09:08.695Z,36.56
2023-04-26T17:11:37.227Z,36.66
2023-04-26T17:14:04.439Z,36.73
2023-04-26T17:16:31.152Z,36.45
2023-04-26T17:18:58.267Z,37.12
2023-04-26T17:21:24.819Z,37.01
2023-04-26T17:23:51.293Z,37.10
2023-04-26T17:26:17.766Z,37.28
2023-04-26T17:28:44.296Z,37.31
2023-04-26T17:31:10.768Z,37.33
2023-04-26T17:33:37.410Z,37.26
2023-04-26T17:36:04.154Z,37.74
2023-04-26T17:38:30.556Z,37.54
2023-04-26T17:40:56.980Z,37.68
2023-04-26T17:43:23.541Z,37.88
2023-04-26T17:45:50.037Z,38.00
2023-04-26T17:48:17.064Z,38.02
2023-04-26T17:50:43.762Z,38.19
2023-04-26T17:53:10.273Z,38.33
2023-04-26T17:55:37.378Z,38.55
2023-04-26T17:58:03.836Z,38.23
2023-04-26T18:00:30.271Z,38.40
2023-04-26T18:02:57.919Z,38.52
2023-04-26T18:05:25.177Z,38.69
2023-04-26T18:07:51.833Z,39.14
2023-04-26T18:10:18.474Z,39.37
2023-04-26T18:12:44.874Z,39.59
2023-04-26T18:15:12.267Z,40.21
2023-04-26T18:17:38.739Z,40.69
2023-04-26T18:20:06.536Z,41.38
2023-04-26T18:22:33.121Z,41.82
2023-04-26T18:24:59.538Z,42.46
2023-04-26T18:27:26.627Z,42.98
2023-04-26T18:29:53.065Z,43.54
2023-04-26T18:32:19.456Z,43.74
2023-04-26T18:34:46.436Z,44.52
2023-04-26T18:37:12.809Z,45.20
2023-04-26T18:39:39.281Z,45.71
2023-04-26T18:42:05.933Z,46.31
2023-04-26T18:44:32.463Z,46.78
2023-04-26T18:46:59.315Z,46.71
2023-04-26T18:49:27.215Z,47.50
2023-04-26T18:51:54.401Z,48.10
2023-04-26T18:54:20.968Z,48.58
2023-04-26T18:56:47.403Z,49.18
2023-04-26T18:59:13.853Z,49.61
2023-04-26T19:01:41.087Z,50.23
2023-04-26T19:04:09.109Z,50.82
2023-04-26T19:06:35.761Z,51.48
2023-04-26T19:09:02.557Z,52.26
2023-04-26T19:11:28.986Z,52.77
2023-04-26T19:13:55.473Z,53.38
2023-04-26T19:16:22.225Z,54.10
2023-04-26T19:18:49.080Z,54.78
2023-04-26T19:21:16.266Z,55.62
2023-04-26T19:23:44.281Z,55.88
2023-04-26T19:26:15.055Z,56.38
2023-04-26T19:28:41.621Z,56.76
2023-04-26T19:31:08.256Z,57.75
2023-04-26T19:33:34.817Z,59.25
2023-04-26T19:36:01.325Z,59.47
2023-04-26T19:38:28.694Z,60.22
2023-04-26T19:40:55.201Z,61.31
2023-04-26T19:43:21.720Z,61.74
2023-04-26T19:45:48.229Z,62.51
2023-04-26T19:48:14.726Z,63.10
2023-04-26T19:50:42.624Z,64.37
2023-04-26T19:53:10.047Z,63.81
2023-04-26T19:55:40.898Z,64.24
2023-04-26T19:58:08.026Z,64.90
2023-04-26T20:00:38.501Z,67.02
2023-04-26T20:03:05.564Z,67.41
2023-04-26T20:05:32.255Z,67.33
2023-04-26T20:07:58.673Z,68.25
2023-04-26T20:10:25.401Z,68.75
2023-04-26T20:12:53.021Z,69.70
2023-04-26T20:15:19.557Z,69.80
2023-04-26T20:17:45.983Z,69.95
2023-04-26T20:20:12.687Z,71.21
2023-04-26T20:22:39.968Z,70.75
2023-04-26T20:25:06.819Z,71.39
2023-04-26T20:27:33.626Z,71.43
2023-04-26T20:30:00.260Z,71.54
2023-04-26T20:32:26.842Z,71.09
2023-04-26T20:34:53.594Z,71.96
2023-04-26T20:37:20.114Z,72.85
2023-04-26T20:39:47.218Z,73.57
2023-04-26T20:42:14.328Z,72.89
2023-04-26T20:44:40.736Z,73.28
2023-04-26T20:47:07.254Z,72.31
2023-04-26T20:49:33.685Z,71.99
2023-04-26T20:52:00.106Z,72.09
2023-04-26T20:54:26.577Z,72.78
2023-04-26T20:56:52.975Z,74.00
2023-04-26T20:59:19.355Z,74.96
2023-04-26T21:01:45.971Z,75.30
2023-04-26T21:04:12.541Z,76.24
2023-04-26T21:06:39.136Z,78.94
2023-04-26T21:09:05.647Z,80.07
2023-04-26T21:11:32.266Z,81.44
2023-04-26T21:13:58.818Z,82.37
2023-04-26T21:16:25.547Z,81.10
2023-04-26T21:18:52.549Z,81.76
2023-04-26T21:21:19.100Z,81.72
2023-04-26T21:23:45.540Z,81.36
2023-04-26T21:26:11.962Z,81.08
2023-04-26T21:28:38.302Z,80.95
2023-04-26T21:31:06.357Z,81.97
2023-04-26T21:33:33.967Z,82.20
2023-04-26T21:36:00.781Z,82.04
2023-04-26T21:38:27.419Z,82.23
2023-04-26T21:40:53.832Z,83.37
2023-04-26T21:43:21.603Z,84.11
2023-04-26T21:45:50.069Z,84.33
2023-04-26T21:48:16.696Z,84.23
2023-04-26T21:50:43.196Z,86.70
2023-04-26T21:53:09.568Z,88.67
2023-04-26T21:55:35.953Z,87.39
2023-04-26T21:58:02.400Z,87.67
2023-04-26T22:00:28.792Z,88.39
2023-04-26T22:02:55.469Z,89.40
2023-04-26T22:05:22.265Z,89.17
2023-04-26T22:07:48.683Z,90.54
2023-04-26T22:10:16.350Z,90.94
2023-04-26T22:12:43.141Z,89.99
2023-04-26T22:15:09.986Z,88.83
2023-04-26T22:17:36.483Z,88.32
2023-04-26T22:20:03.704Z,88.38
2023-04-26T22:22:30.226Z,88.46
2023-04-26T22:24:56.711Z,87.79
2023-04-26T22:27:23.202Z,88.76
2023-04-26T22:29:49.702Z,90.01
2023-04-26T22:32:16.199Z,91.75
2023-04-26T22:34:43.853Z,91.35
2023-04-26T22:37:20.203Z,92.28
2023-04-26T22:39:47.486Z,92.60
2023-04-26T22:42:13.888Z,93.41
2023-04-26T22:44:40.382Z,94.80
2023-04-26T22:47:06.889Z,94.48
2023-04-26T22:49:33.626Z,94.89
2023-04-26T22:52:07.961Z,95.43
2023-04-26T22:54:38.561Z,96.97
2023-04-26T22:57:07.264Z,96.88
2023-04-26T22:59:34.284Z,98.94
2023-04-26T23:02:01.689Z,98.29
2023-04-26T23:04:28.200Z,97.74
2023-04-26T23:06:54.750Z,96.97
2023-04-26T23:09:21.345Z,98.30
2023-04-26T23:11:47.936Z,98.79
2023-04-26T23:14:15.747Z,100.00
2023-04-26T23:16:42.476Z,100.00
2023-04-26T23:19:09.580Z,100.00
2023-04-26T23:21:36.235Z,100.00
2023-04-26T23:24:02.802Z,100.00
2023-04-26T23:26:29.322Z,100.00
2023-04-26T23:28:55.840Z,100.00
2023-04-26T23:31:22.278Z,100.00
2023-04-26T23:33:48.735Z,100.00
2023-04-26T23:36:15.168Z,100.00
2023-04-26T23:38:41.726Z,100.00
2023-04-26T23:41:08.141Z,100.00
2023-04-26T23:43:34.544Z,100.00
2023-04-26T23:46:00.974Z,100.00
2023-04-26T23:48:27.449Z,100.00
2023-04-26T23:50:53.964Z,100.00
2023-04-26T23:53:20.510Z,100.00
2023-04-26T23:55:47.279Z,100.00
2023-04-26T23:58:13.795Z,100.00
